Time;durP1;ratioP1;P1;durP2;ratioP2;P2;SDS_P1;SDS_P2;PMS_P1;PMS_P2;Temp;Humidity;BMP_temperature;BMP_pressure;BME280_temperature;BME280_humidity;BME280_pressure;Samples;Min_cycle;Max_cycle;Signal;HPM_P1;HPM_P2
2021/06/17 00:00:43;;;;;;;30.93;27.60;;;;;;;16.51;nan;99295.16;2105907;28;20463;-89
2021/06/17 00:01:44;;;;;;;35.57;26.97;;;;;;;16.50;nan;99294.34;2105109;28;20679;-88
2021/06/17 00:02:46;;;;;;;36.77;27.90;;;;;;;16.54;nan;99299.88;2105404;28;20871;-89
2021/06/17 00:03:47;;;;;;;32.83;27.80;;;;;;;16.40;nan;99317.09;2105600;28;20228;-89
2021/06/17 00:04:49;;;;;;;34.37;27.80;;;;;;;16.50;nan;99288.19;2096932;28;20510;-89
2021/06/17 00:05:50;;;;;;;35.83;28.97;;;;;;;16.51;nan;99290.56;2105910;28;20228;-88
2021/06/17 00:06:51;;;;;;;32.83;28.43;;;;;;;16.48;nan;99274.25;2096341;28;20465;-89
2021/06/17 00:07:52;;;;;;;33.23;28.50;;;;;;;16.51;nan;99295.97;2096834;28;20233;-89
2021/06/17 00:08:54;;;;;;;35.50;29.03;;;;;;;16.48;nan;99285.81;2105555;28;20462;-88
2021/06/17 00:09:55;;;;;;;33.00;28.87;;;;;;;16.46;nan;99324.97;2105399;28;20502;-88
2021/06/17 00:10:59;;;;;;;31.73;28.53;;;;;;;16.49;nan;99286.59;2096641;28;20522;-89
2021/06/17 00:12:00;;;;;;;31.73;28.27;;;;;;;16.54;nan;99299.88;2105331;28;20561;-89
2021/06/17 00:13:05;;;;;;;34.13;28.77;;;;;;;16.53;nan;99298.31;2105149;28;20462;-89
2021/06/17 00:14:06;;;;;;;35.57;30.83;;;;;;;16.52;nan;99291.34;2106008;28;20462;-89
2021/06/17 00:15:10;;;;;;;41.47;29.23;;;;;;;16.51;nan;99295.97;2106575;28;20446;-89
2021/06/17 00:16:11;;;;;;;36.57;29.03;;;;;;;16.50;nan;99305.13;2104726;28;20229;-89
2021/06/17 00:17:13;;;;;;;36.07;29.73;;;;;;;16.50;nan;99293.56;2097758;28;20459;-89
2021/06/17 00:18:15;;;;;;;38.10;29.30;;;;;;;16.29;nan;99288.97;2097089;28;20509;-89
2021/06/17 00:19:17;;;;;;;38.50;29.17;;;;;;;16.50;nan;99293.56;2098491;28;20425;-89
2021/06/17 00:20:18;;;;;;;31.90;28.50;;;;;;;16.50;nan;99294.34;2097624;28;21366;-89
2021/06/17 00:21:19;;;;;;;33.33;28.37;;;;;;;16.50;nan;99288.97;2105107;28;20827;-89
2021/06/17 00:22:20;;;;;;;32.13;28.77;;;;;;;16.47;nan;99316.56;2106707;28;20460;-89
2021/06/17 00:23:22;;;;;;;31.30;28.07;;;;;;;16.48;nan;99290.41;2104821;28;20509;-90
2021/06/17 00:24:23;;;;;;;38.20;29.20;;;;;;;;;;2106048;28;20256;-89
2021/06/17 00:25:26;;;;;;;36.53;30.03;;;;;;;16.47;nan;99288.84;2105438;28;20455;-88
2021/06/17 00:26:29;;;;;;;36.97;28.17;;;;;;;16.46;nan;99298.06;2096508;28;21866;-88
2021/06/17 00:27:30;;;;;;;33.03;29.47;;;;;;;16.46;nan;99298.84;2105644;28;20439;-89
2021/06/17 00:28:31;;;;;;;37.33;28.80;;;;;;;16.42;nan;99275.56;2105377;28;20545;-89
2021/06/17 00:29:33;;;;;;;35.07;28.63;;;;;;;16.45;nan;99297.25;2106067;28;20475;-89
2021/06/17 00:30:35;;;;;;;33.30;29.77;;;;;;;16.41;nan;99296.31;2104659;28;20454;-89
2021/06/17 00:31:38;;;;;;;35.10;29.20;;;;;;;16.42;nan;99307.88;2104879;28;20543;-88
2021/06/17 00:32:39;;;;;;;33.30;29.07;;;;;;;16.36;nan;99288.47;2105278;28;20958;-88
2021/06/17 00:33:41;;;;;;;35.93;29.87;;;;;;;16.39;nan;99299.34;2097120;28;20468;-88
2021/06/17 00:34:41;;;;;;;34.33;28.70;;;;;;;16.40;nan;99306.31;2105755;28;20229;-89
2021/06/17 00:35:43;;;;;;;35.23;29.20;;;;;;;16.39;nan;99299.34;2105307;28;20459;-89
2021/06/17 00:36:44;;;;;;;34.27;29.07;;;;;;;16.40;nan;99300.13;2096347;28;20225;-89
2021/06/17 00:37:46;;;;;;;35.70;29.07;;;;;;;16.35;nan;99282.28;2096878;28;20487;-89
2021/06/17 00:38:46;;;;;;;36.27;28.93;;;;;;;16.37;nan;99290.81;2105474;28;20252;-89
2021/06/17 00:39:48;;;;;;;32.73;29.23;;;;;;;16.38;nan;99297.78;2105337;28;20494;-89
2021/06/17 00:40:51;;;;;;;40.73;29.90;;;;;;;16.37;nan;99295.41;2097204;28;20249;-88
2021/06/17 00:41:54;;;;;;;30.83;27.70;;;;;;;16.29;nan;99288.97;2096140;28;20978;-89
2021/06/17 00:42:55;;;;;;;38.20;29.83;;;;;;;16.31;nan;99297.50;2096871;28;20456;-89
2021/06/17 00:43:57;;;;;;;35.03;28.93;;;;;;;16.27;nan;99323.53;2096780;28;20472;-89
2021/06/17 00:44:58;;;;;;;33.90;29.80;;;;;;;16.32;nan;99309.84;2097179;28;20453;-88
2021/06/17 00:45:59;;;;;;;32.20;28.73;;;;;;;;;;2106046;28;20934;-89
2021/06/17 00:47:00;;;;;;;36.23;29.90;;;;;;;16.31;nan;99291.34;2105321;28;20694;-89
2021/06/17 00:48:02;;;;;;;33.00;29.67;;;;;;;16.30;nan;99295.94;2098238;28;20903;-88
2021/06/17 00:49:04;;;;;;;33.73;29.57;;;;;;;16.28;nan;99286.63;2098776;28;20226;-89
2021/06/17 00:50:08;;;;;;;34.37;29.83;;;;;;;16.20;nan;99328.63;2098367;28;20458;-89
2021/06/17 00:51:08;;;;;;;34.37;29.23;;;;;;;16.22;nan;99331.78;2107042;28;20534;-88
2021/06/17 00:52:10;;;;;;;35.83;29.47;;;;;;;16.18;nan;99293.19;2106131;28;20451;-88
2021/06/17 00:53:12;;;;;;;35.63;29.37;;;;;;;16.20;nan;99296.34;2099613;28;20230;-88
2021/06/17 00:54:31;;;;;;;33.63;30.00;;;;;;;16.17;nan;99297.00;2106804;28;20508;-89
2021/06/17 00:55:32;;;;;;;42.50;29.97;;;;;;;16.16;nan;99300.81;2106591;28;20531;-89
2021/06/17 00:56:34;;;;;;;36.03;31.43;;;;;;;16.11;nan;99299.06;2099153;28;20540;-90
2021/06/17 00:57:37;;;;;;;37.63;31.03;;;;;;;16.15;nan;99299.19;2098130;28;20863;-89
2021/06/17 00:58:38;;;;;;;34.07;30.40;;;;;;;16.15;nan;99299.19;2098598;28;20516;-82
2021/06/17 00:59:39;;;;;;;43.77;29.67;;;;;;;16.17;nan;99290.81;2098056;28;20876;-89
2021/06/17 01:00:41;;;;;;;42.00;31.33;;;;;;;;;;2098663;28;20541;-89
2021/06/17 01:01:43;;;;;;;34.77;31.17;;;;;;;16.13;nan;99306.81;2098763;28;20230;-89
2021/06/17 01:02:44;;;;;;;37.13;32.33;;;;;;;;;;2098522;28;20456;-89
2021/06/17 01:03:45;;;;;;;38.17;31.60;;;;;;;16.13;nan;99301.44;2098525;28;20949;-90
2021/06/17 01:04:47;;;;;;;37.17;32.00;;;;;;;16.13;nan;99285.28;2106509;28;20869;-89
2021/06/17 01:05:48;;;;;;;34.97;30.70;;;;;;;16.13;nan;99306.81;2106667;28;20225;-89
2021/06/17 01:06:50;;;;;;;39.87;32.03;;;;;;;16.13;nan;99301.44;2098752;28;20536;-89
2021/06/17 01:08:00;;;;;;;42.57;31.20;;;;;;;16.12;nan;99289.09;2107422;28;20439;-89
2021/06/17 01:09:04;;;;;;;36.47;30.87;;;;;;;-144.27;nan;69759.91;2106332;28;20455;-89
2021/06/17 01:10:09;;;;;;;38.03;31.90;;;;;;;16.08;nan;99321.28;2106580;28;20451;-89
2021/06/17 01:11:16;;;;;;;40.03;31.03;;;;;;;16.05;nan;99295.00;2097966;28;20456;-89
2021/06/17 01:12:23;;;;;;;37.53;31.10;;;;;;;;;;2100512;28;20441;-89
2021/06/17 01:13:32;;;;;;;44.43;33.53;;;;;;;;;;2099072;28;20463;-89
2021/06/17 01:14:38;;;;;;;39.60;31.27;;;;;;;16.03;nan;99301.81;2099808;28;20448;-89
2021/06/17 01:15:43;;;;;;;41.57;31.43;;;;;;;;;;2099384;28;20832;-89
2021/06/17 01:16:45;;;;;;;37.67;31.07;;;;;;;;;;2106867;28;21036;-87
2021/06/17 01:17:59;;;;;;;38.37;32.07;;;;;;;15.96;nan;99339.22;2106585;28;20439;-89
2021/06/17 01:19:02;;;;;;;35.87;31.83;;;;;;;16.00;nan;99297.09;2099515;28;20512;-89
2021/06/17 01:20:09;;;;;;;43.83;32.40;;;;;;;15.98;nan;99304.69;2107761;28;20471;-89
2021/06/17 01:21:16;;;;;;;36.50;31.90;;;;;;;15.98;nan;99310.06;2106954;28;20466;-89
2021/06/17 01:22:29;;;;;;;42.03;32.43;;;;;;;16.00;nan;99307.88;2107281;28;20446;-89
2021/06/17 01:23:52;;;;;;;40.93;32.43;;;;;;;15.98;nan;99304.69;2105971;28;20480;-89
2021/06/17 01:25:04;;;;;;;34.83;30.93;;;;;;;15.98;nan;99310.06;2106112;28;20460;-82
2021/06/17 01:26:14;;;;;;;43.03;32.03;;;;;;;15.94;nan;99293.00;2106468;28;20488;-89
2021/06/17 01:27:44;;;;;;;38.00;32.83;;;;;;;15.95;nan;99299.97;2099211;28;20445;-89
2021/06/17 01:28:49;;;;;;;40.67;32.40;;;;;;;15.93;nan;99302.19;2110215;28;20458;-89
2021/06/17 01:29:53;;;;;;;37.47;32.83;;;;;;;15.92;nan;99300.63;2107013;28;20462;-89
2021/06/17 01:30:58;;;;;;;37.57;31.83;;;;;;;15.90;nan;99292.06;2097636;28;20465;-87
2021/06/17 01:32:01;;;;;;;38.57;32.50;;;;;;;15.88;nan;99295.09;2105876;28;20444;-88
2021/06/17 01:33:04;;;;;;;41.73;31.60;;;;;;;15.84;nan;99337.22;2107441;28;20451;-89
2021/06/17 01:34:06;;;;;;;35.40;31.37;;;;;;;15.81;nan;99290.25;2098118;28;20536;-87
2021/06/17 01:35:09;;;;;;;34.40;30.70;;;;;;;15.75;nan;99328.41;2098573;28;20460;-89
2021/06/17 01:36:15;;;;;;;38.70;31.77;;;;;;;15.78;nan;99290.09;2098024;28;20503;-87
2021/06/17 01:37:18;;;;;;;37.23;31.37;;;;;;;15.73;nan;99325.25;2097947;28;20476;-89
2021/06/17 01:38:22;;;;;;;39.53;33.33;;;;;;;15.75;nan;99285.38;2107557;28;20517;-89
2021/06/17 01:39:23;;;;;;;42.80;33.10;;;;;;;;;;2106635;28;20455;-86
2021/06/17 01:40:26;;;;;;;39.60;32.63;;;;;;;15.68;nan;99291.25;2106272;28;20831;-83
2021/06/17 01:41:28;;;;;;;36.33;32.17;;;;;;;15.67;nan;99289.66;2098441;28;20460;-88
2021/06/17 01:42:30;;;;;;;43.43;32.03;;;;;;;15.53;nan;99311.34;2097165;28;20459;-88
2021/06/17 01:43:32;;;;;;;38.70;31.77;;;;;;;15.64;nan;99295.72;2099197;28;20989;-89
2021/06/17 01:44:36;;;;;;;40.50;33.50;;;;;;;15.62;nan;99297.91;2106410;28;20948;-89
2021/06/17 01:45:36;;;;;;;41.67;32.50;;;;;;;15.59;nan;99266.25;2107443;28;20467;-89
2021/06/17 01:46:39;;;;;;;41.27;33.00;;;;;;;15.56;nan;99288.44;2106952;28;20530;-83
2021/06/17 01:47:40;;;;;;;35.80;31.63;;;;;;;15.55;nan;99286.84;2097117;28;20853;-88
2021/06/17 01:48:43;;;;;;;42.10;34.10;;;;;;;15.53;nan;99289.06;2099206;28;20445;-89
2021/06/17 01:49:45;;;;;;;38.67;32.73;;;;;;;15.51;nan;99334.31;2098139;28;20448;-89
2021/06/17 01:50:48;;;;;;;43.77;34.47;;;;;;;15.51;nan;99302.03;2098399;28;20475;-89
2021/06/17 01:51:49;;;;;;;41.97;32.03;;;;;;;;;;2099045;28;21021;-89
2021/06/17 01:52:51;;;;;;;38.00;32.93;;;;;;;15.48;nan;99298.09;2096452;28;20470;-89
2021/06/17 01:53:54;;;;;;;45.73;33.60;;;;;;;15.39;nan;99316.16;2107120;28;20455;-89
2021/06/17 01:54:56;;;;;;;40.90;33.40;;;;;;;15.41;nan;99237.88;2105642;28;20555;-88
2021/06/17 01:55:59;;;;;;;41.37;32.77;;;;;;;-144.27;0.00;69759.91;2097546;28;20465;-89
2021/06/17 01:57:00;;;;;;;45.57;34.40;;;;;;;15.37;nan;99285.31;2098468;28;20452;-88
2021/06/17 01:58:03;;;;;;;38.20;32.87;;;;;;;;;;2096684;28;20962;-88
2021/06/17 01:59:04;;;;;;;39.47;32.83;;;;;;;;;;2098483;28;20437;-89
2021/06/17 02:00:09;;;;;;;36.93;32.87;;;;;;;15.26;nan;99274.91;2106263;28;20484;-89
2021/06/17 02:01:10;;;;;;;39.43;33.83;;;;;;;15.33;nan;99289.78;2106643;28;20455;-88
2021/06/17 02:02:12;;;;;;;43.33;34.10;;;;;;;15.29;nan;99327.28;2106937;28;20514;-89
2021/06/17 02:03:15;;;;;;;38.20;33.20;;;;;;;15.27;nan;99281.88;2097029;28;20295;-87
2021/06/17 02:04:19;;;;;;;40.57;33.63;;;;;;;15.24;nan;99282.53;2106793;28;20489;-88
2021/06/17 02:05:22;;;;;;;45.67;35.40;;;;;;;15.22;nan;99327.75;2106015;28;20526;-89
2021/06/17 02:06:25;;;;;;;43.27;33.40;;;;;;;15.21;nan;99277.81;2097799;28;20225;-86
2021/06/17 02:07:26;;;;;;;43.23;34.40;;;;;;;15.22;nan;99283.97;2098186;28;20476;-88
2021/06/17 02:08:28;;;;;;;39.95;35.05;;;;;;;15.19;nan;99284.59;2096921;28;20456;-88
2021/06/17 02:09:30;;;;;;;45.23;34.57;;;;;;;15.16;nan;99280.66;2097280;28;20225;-87
2021/06/17 02:10:31;;;;;;;41.07;34.90;;;;;;;15.16;nan;99286.03;2097606;28;20268;-88
2021/06/17 02:11:33;;;;;;;42.53;33.97;;;;;;;;;;2098007;28;20454;-89
2021/06/17 02:12:34;;;;;;;47.43;34.73;;;;;;;15.08;nan;99326.34;2098968;28;20440;-89
2021/06/17 02:13:37;;;;;;;44.67;35.33;;;;;;;15.11;nan;99272.75;2097450;28;20483;-89
2021/06/17 02:14:38;;;;;;;44.90;34.87;;;;;;;15.09;nan;99274.19;2098038;28;20660;-83
2021/06/17 02:15:43;;;;;;;38.30;34.20;;;;;;;15.09;nan;99327.94;2097602;28;20440;-89
2021/06/17 02:16:44;;;;;;;41.27;35.03;;;;;;;14.95;nan;99307.41;2105886;28;20443;-89
2021/06/17 02:17:48;;;;;;;45.63;35.88;;;;;;;15.07;nan;99281.78;2106607;28;20450;-88
2021/06/17 02:18:51;;;;;;;47.55;35.35;;;;;;;15.06;nan;99281.00;2105727;28;20229;-89
2021/06/17 02:19:52;;;;;;;45.15;36.70;;;;;;;15.03;nan;99329.19;2106857;28;20293;-89
2021/06/17 02:20:54;;;;;;;45.05;36.30;;;;;;;14.91;nan;99263.47;2106316;28;20229;-88
2021/06/17 02:21:58;;;;;;;45.85;35.95;;;;;;;14.96;nan;99325.13;2106396;28;20229;-88
2021/06/17 02:23:03;;;;;;;41.53;35.57;;;;;;;14.99;nan;99276.09;2107092;28;20258;-89
2021/06/17 02:24:09;;;;;;;46.58;36.50;;;;;;;14.98;nan;99279.13;2106295;28;20479;-89
2021/06/17 02:25:13;;;;;;;42.72;35.60;;;;;;;14.94;nan;99267.41;2105593;28;20233;-88
2021/06/17 02:26:17;;;;;;;42.03;36.95;;;;;;;14.93;nan;99276.59;2105413;28;20240;-89
2021/06/17 02:27:21;;;;;;;46.63;37.55;;;;;;;14.92;nan;99275.00;2105959;28;20711;-89
2021/06/17 02:28:25;;;;;;;42.75;36.50;;;;;;;14.90;nan;99271.84;2106224;28;20222;-89
2021/06/17 02:29:26;;;;;;;43.97;35.90;;;;;;;14.87;nan;99262.56;2105381;28;20238;-88
2021/06/17 02:30:31;;;;;;;46.35;36.15;;;;;;;14.85;nan;99259.38;2106470;28;22959;-88
2021/06/17 02:31:34;;;;;;;44.95;36.17;;;;;;;14.86;nan;99271.72;2097125;28;20560;-88
2021/06/17 02:32:40;;;;;;;45.70;35.63;;;;;;;14.83;nan;99272.34;2105617;28;20218;-87
2021/06/17 02:33:41;;;;;;;43.70;35.13;;;;;;;;;;2105657;28;20874;-87
2021/06/17 02:34:43;;;;;;;42.80;35.43;;;;;;;;;;2105342;28;20303;-88
2021/06/17 02:35:45;;;;;;;45.78;35.20;;;;;;;14.72;nan;99297.16;2106012;28;20232;-87
2021/06/17 02:36:48;;;;;;;43.10;34.80;;;;;;;14.75;nan;99265.06;2096779;28;20230;-86
2021/06/17 02:37:52;;;;;;;43.97;36.93;;;;;;;14.71;nan;99231.91;2096615;28;20513;-87
2021/06/17 02:38:56;;;;;;;42.17;35.83;;;;;;;14.74;nan;99290.38;2105630;28;20467;-87
2021/06/17 02:39:57;;;;;;;41.60;35.67;;;;;;;14.70;nan;99274.09;2106285;28;22719;-87
2021/06/17 02:41:02;;;;;;;43.33;36.57;;;;;;;14.64;nan;99307.59;2105864;28;20471;-86
2021/06/17 02:42:05;;;;;;;51.90;38.43;;;;;;;14.70;nan;99353.88;2097161;28;20665;-87
2021/06/17 02:43:10;;;;;;;56.37;40.47;;;;;;;14.67;nan;99269.34;2105647;28;20440;-87
2021/06/17 02:44:11;;;;;;;48.78;38.75;;;;;;;14.69;nan;99347.72;2106353;28;20444;-87
2021/06/17 02:45:15;;;;;;;49.78;38.15;;;;;;;14.68;nan;99260.22;2105434;28;20310;-87
2021/06/17 02:46:16;;;;;;;51.85;38.38;;;;;;;14.72;nan;99275.69;2097781;28;20230;-87
2021/06/17 02:47:19;;;;;;;47.20;39.10;;;;;;;14.66;nan;99316.13;2097072;28;20230;-86
2021/06/17 02:48:20;;;;;;;47.40;38.72;;;;;;;14.72;nan;99351.66;2096779;28;20218;-87
2021/06/17 02:49:22;;;;;;;51.33;40.30;;;;;;;14.74;nan;99251.97;2097206;28;20222;-88
2021/06/17 02:50:23;;;;;;;50.97;38.20;;;;;;;;;;2105143;28;20691;-84
2021/06/17 02:51:24;;;;;;;48.43;39.23;;;;;;;;;;2106091;28;20415;-86
2021/06/17 02:52:25;;;;;;;44.72;38.40;;;;;;;14.76;nan;99261.28;2105203;28;20217;-88
2021/06/17 02:53:27;;;;;;;55.30;39.50;;;;;;;14.72;nan;99248.81;2096999;28;20230;-87
2021/06/17 02:54:28;;;;;;;50.47;39.92;;;;;;;14.70;nan;99230.34;2106970;28;20253;-88
2021/06/17 02:55:29;;;;;;;46.37;38.10;;;;;;;14.70;nan;99251.84;2105617;28;20679;-88
2021/06/17 02:56:34;;;;;;;49.88;39.42;;;;;;;14.73;nan;99271.88;2097924;28;20222;-88
2021/06/17 02:57:48;;;;;;;43.92;37.03;;;;;;;14.79;nan;99276.78;2105536;28;20232;-88
2021/06/17 02:59:02;;;;;;;48.38;38.67;;;;;;;14.81;nan;99289.88;2106217;28;20671;-88
2021/06/17 03:00:09;;;;;;;51.45;38.35;;;;;;;14.81;nan;99285.31;2106752;28;20243;-88
2021/06/17 03:01:15;;;;;;;46.90;38.73;;;;;;;14.75;nan;99275.03;2105959;28;20218;-87
2021/06/17 03:02:22;;;;;;;47.03;37.40;;;;;;;14.81;nan;99296.03;2106369;28;20477;-88
2021/06/17 03:03:28;;;;;;;42.13;35.45;;;;;;;14.81;nan;99289.88;2098036;28;20234;-86
2021/06/17 03:04:35;;;;;;;48.55;38.50;;;;;;;14.79;nan;99292.09;2098022;28;20316;-88
2021/06/17 03:05:38;;;;;;;47.88;38.47;;;;;;;14.79;nan;99298.28;2105764;28;20214;-88
2021/06/17 03:06:43;;;;;;;45.67;37.42;;;;;;;14.78;nan;99302.06;2105097;28;20225;-88
2021/06/17 03:07:46;;;;;;;49.72;39.47;;;;;;;14.75;nan;99291.16;2098048;28;20597;-87
2021/06/17 03:08:52;;;;;;;44.95;37.58;;;;;;;14.77;nan;99300.50;2097621;28;20221;-88
2021/06/17 03:09:56;;;;;;;45.30;36.27;;;;;;;14.74;nan;99337.91;2097643;28;20255;-86
2021/06/17 03:10:59;;;;;;;43.97;37.37;;;;;;;14.72;nan;99281.06;2105419;28;20470;-88
2021/06/17 03:12:01;;;;;;;45.80;35.80;;;;;;;;;;2106358;28;20440;-88
2021/06/17 03:13:04;;;;;;;42.90;37.17;;;;;;;;;;2107108;28;20294;-88
2021/06/17 03:14:10;;;;;;;51.33;39.40;;;;;;;14.76;nan;99277.41;2105945;28;20494;-88
2021/06/17 03:15:13;;;;;;;46.03;39.40;;;;;;;14.73;nan;99341.72;2106203;28;20556;-88
2021/06/17 03:16:17;;;;;;;43.40;37.63;;;;;;;14.75;nan;99297.31;2105846;28;20451;-88
2021/06/17 03:17:20;;;;;;;48.33;40.73;;;;;;;14.75;nan;99296.53;2106178;28;20475;-88
2021/06/17 03:18:22;;;;;;;49.45;38.92;;;;;;;14.74;nan;99294.94;2106336;28;20455;-87
2021/06/17 03:19:26;;;;;;;46.88;38.58;;;;;;;14.75;nan;99286.56;2105555;28;20724;-87
2021/06/17 03:20:29;;;;;;;48.47;38.67;;;;;;;14.75;nan;99297.31;2106526;28;20225;-88
2021/06/17 03:21:34;;;;;;;44.80;37.70;;;;;;;14.76;nan;99292.72;2106048;28;20713;-88
2021/06/17 03:22:36;;;;;;;45.80;38.07;;;;;;;14.69;nan;99251.03;2105993;28;20218;-87
2021/06/17 03:23:39;;;;;;;46.07;36.67;;;;;;;14.75;nan;99301.91;2107358;28;20451;-88
2021/06/17 03:24:44;;;;;;;44.37;37.07;;;;;;;14.74;nan;99294.94;2105987;28;20471;-88
2021/06/17 03:25:49;;;;;;;44.42;38.42;;;;;;;;;;2105958;28;20513;-89
2021/06/17 03:26:52;;;;;;;43.63;38.33;;;;;;;14.78;nan;99307.44;2105760;28;20222;-89
2021/06/17 03:27:55;;;;;;;50.63;39.33;;;;;;;14.77;nan;99299.66;2097782;28;20548;-85
2021/06/17 03:28:56;;;;;;;47.20;38.35;;;;;;;14.78;nan;99290.53;2097723;28;20499;-88
2021/06/17 03:29:58;;;;;;;51.58;40.20;;;;;;;14.79;nan;99298.28;2105678;28;20237;-89
2021/06/17 03:31:00;;;;;;;48.67;39.63;;;;;;;14.77;nan;99295.13;2106769;28;20308;-89
2021/06/17 03:32:02;;;;;;;50.22;40.58;;;;;;;;;;2105997;28;20225;-89
2021/06/17 03:33:05;;;;;;;47.47;38.53;;;;;;;14.81;nan;99349.78;2106240;28;20300;-88
2021/06/17 03:34:07;;;;;;;49.63;37.25;;;;;;;14.86;nan;99308.53;2098520;28;20449;-89
2021/06/17 03:35:10;;;;;;;47.42;38.22;;;;;;;14.85;nan;99345.34;2096778;28;20229;-87
2021/06/17 03:36:12;;;;;;;43.83;37.30;;;;;;;14.90;nan;99357.84;2105909;28;20225;-89
2021/06/17 03:37:16;;;;;;;42.15;37.55;;;;;;;14.90;nan;99304.09;2105806;28;20229;-87
2021/06/17 03:38:21;;;;;;;43.70;34.90;;;;;;;;;;2105079;28;20243;-89
2021/06/17 03:39:21;;;;;;;41.40;34.40;;;;;;;14.91;nan;99289.56;2106458;28;20466;-89
2021/06/17 03:40:24;;;;;;;40.43;34.83;;;;;;;14.92;nan;99313.41;2096955;28;20707;-88
2021/06/17 03:41:26;;;;;;;40.97;35.77;;;;;;;14.88;nan;99252.59;2104831;28;20225;-88
2021/06/17 03:42:29;;;;;;;42.58;36.33;;;;;;;14.94;nan;99289.72;2097248;28;20436;-88
2021/06/17 03:43:31;;;;;;;42.70;36.25;;;;;;;14.96;nan;99308.22;2104864;28;20682;-88
2021/06/17 03:44:34;;;;;;;54.13;38.33;;;;;;;14.96;nan;99298.25;2105859;28;20221;-88
2021/06/17 03:45:37;;;;;;;42.35;36.08;;;;;;;14.97;nan;99299.03;2105748;28;20458;-89
2021/06/17 03:46:39;;;;;;;42.28;35.80;;;;;;;14.99;nan;99291.44;2104880;28;20245;-86
2021/06/17 03:47:42;;;;;;;39.08;34.83;;;;;;;15.00;nan;99314.50;2105470;28;20232;-86
2021/06/17 03:48:46;;;;;;;37.63;33.63;;;;;;;15.00;nan;99303.75;2104669;28;20252;-88
2021/06/17 03:49:47;;;;;;;40.10;35.00;;;;;;;15.03;nan;99319.25;2105888;28;20496;-87
2021/06/17 03:50:49;;;;;;;39.50;34.40;;;;;;;15.03;nan;99303.16;2097041;28;20229;-88
2021/06/17 03:51:50;;;;;;;38.97;32.67;;;;;;;14.99;nan;99297.59;2104659;28;20221;-88
2021/06/17 03:52:53;;;;;;;37.78;33.65;;;;;;;15.08;nan;99311.03;2104978;28;20236;-87
2021/06/17 03:53:54;;;;;;;40.83;33.03;;;;;;;15.07;nan;99265.66;2096484;28;20575;-82
2021/06/17 03:54:57;;;;;;;39.50;33.30;;;;;;;15.12;nan;99306.59;2105824;28;20548;-87
2021/06/17 03:55:58;;;;;;;38.60;33.83;;;;;;;15.11;nan;99352.59;2105847;28;20466;-88
2021/06/17 03:57:02;;;;;;;41.30;33.43;;;;;;;15.16;nan;99301.38;2105941;28;20439;-88
2021/06/17 03:58:03;;;;;;;38.55;34.40;;;;;;;15.15;nan;99294.41;2106681;28;20993;-88
2021/06/17 03:59:05;;;;;;;42.63;33.93;;;;;;;;;;2105363;28;20616;-87
2021/06/17 04:00:06;;;;;;;41.95;34.10;;;;;;;15.24;nan;99304.03;2105738;28;20587;-88
2021/06/17 04:01:14;;;;;;;38.08;32.78;;;;;;;15.26;nan;99307.19;2105428;28;20264;-88
2021/06/17 04:02:14;;;;;;;38.83;32.90;;;;;;;;;;2105410;28;20213;-88
2021/06/17 04:03:16;;;;;;;43.50;33.73;;;;;;;15.32;nan;99294.38;2097595;28;20449;-88
2021/06/17 04:04:19;;;;;;;37.73;32.77;;;;;;;15.34;nan;99302.09;2104866;28;20248;-88
2021/06/17 04:05:21;;;;;;;40.13;32.17;;;;;;;15.23;nan;99297.09;2105731;28;20493;-88
2021/06/17 04:06:25;;;;;;;38.27;33.43;;;;;;;15.39;nan;99310.78;2097374;28;20468;-88
2021/06/17 04:07:27;;;;;;;42.10;33.73;;;;;;;15.42;nan;99309.34;2104919;28;20455;-88
2021/06/17 04:08:31;;;;;;;39.53;33.10;;;;;;;15.44;nan;99307.13;2106527;28;20456;-88
2021/06/17 04:09:34;;;;;;;37.73;33.63;;;;;;;15.40;nan;99338.47;2104533;28;20508;-88
2021/06/17 04:10:36;;;;;;;41.30;34.20;;;;;;;15.51;nan;99302.03;2105261;28;20440;-88
2021/06/17 04:11:38;;;;;;;43.13;34.57;;;;;;;;;;2106117;28;20450;-88
2021/06/17 04:12:40;;;;;;;40.37;35.30;;;;;;;15.57;nan;99311.53;2104413;28;20456;-87
2021/06/17 04:13:43;;;;;;;48.13;36.30;;;;;;;15.62;nan;99303.28;2105688;28;20518;-88
2021/06/17 04:14:46;;;;;;;42.77;37.07;;;;;;;15.65;nan;99359.16;2104592;28;21012;-88
2021/06/17 04:15:49;;;;;;;42.97;36.43;;;;;;;15.67;nan;99310.41;2105353;28;20486;-88
2021/06/17 04:16:51;;;;;;;39.83;33.90;;;;;;;15.69;nan;99308.16;2104916;28;20949;-88
2021/06/17 04:17:56;;;;;;;40.97;35.47;;;;;;;15.70;nan;99310.53;2104761;28;20468;-88
2021/06/17 04:18:57;;;;;;;41.13;35.50;;;;;;;15.74;nan;99311.47;2105214;28;20890;-88
2021/06/17 04:20:00;;;;;;;43.93;35.27;;;;;;;15.76;nan;99314.63;2104618;28;20451;-88
2021/06/17 04:21:02;;;;;;;50.03;36.60;;;;;;;15.80;nan;99298.63;2106277;28;20496;-88
2021/06/17 04:22:05;;;;;;;43.13;36.80;;;;;;;;;;2107516;28;20485;-88
2021/06/17 04:23:06;;;;;;;47.67;36.83;;;;;;;15.85;nan;99294.97;2106746;28;20451;-88
2021/06/17 04:24:09;;;;;;;45.53;39.77;;;;;;;;;;2106976;28;20459;-82
2021/06/17 04:25:10;;;;;;;47.63;38.30;;;;;;;15.90;nan;99351.28;2105985;28;20489;-88
2021/06/17 04:26:13;;;;;;;48.27;38.67;;;;;;;;;;2107288;28;20435;-88
2021/06/17 04:27:14;;;;;;;49.00;39.30;;;;;;;15.99;nan;99296.31;2106447;28;20446;-88
2021/06/17 04:28:17;;;;;;;48.73;38.97;;;;;;;16.07;nan;99308.94;2098222;28;20808;-88
2021/06/17 04:29:18;;;;;;;45.40;37.77;;;;;;;16.11;nan;99299.06;2099215;28;20448;-88
2021/06/17 04:30:24;;;;;;;51.40;39.80;;;;;;;16.12;nan;99283.72;2106180;28;20548;-89
2021/06/17 04:31:25;;;;;;;46.83;38.97;;;;;;;16.07;nan;99335.84;2107539;28;20471;-89
2021/06/17 04:32:28;;;;;;;47.43;37.67;;;;;;;16.19;nan;99277.81;2097669;28;20531;-88
2021/06/17 04:33:30;;;;;;;50.27;39.33;;;;;;;16.22;nan;99310.25;2107221;28;20451;-88
2021/06/17 04:34:32;;;;;;;52.03;38.93;;;;;;;16.27;nan;99307.38;2107140;28;20447;-88
2021/06/17 04:35:37;;;;;;;46.60;38.77;;;;;;;16.31;nan;99319.06;2097694;28;20451;-88
2021/06/17 04:36:39;;;;;;;47.37;39.10;;;;;;;16.32;nan;99309.84;2108048;28;20467;-83
2021/06/17 04:37:40;;;;;;;48.07;40.13;;;;;;;16.37;nan;99301.59;2105921;28;20447;-87
2021/06/17 04:38:42;;;;;;;49.10;38.80;;;;;;;16.36;nan;99353.88;2098114;28;20871;-88
2021/06/17 04:39:43;;;;;;;48.50;38.90;;;;;;;16.38;nan;99335.47;2098536;28;20493;-88
2021/06/17 04:40:46;;;;;;;51.20;38.97;;;;;;;;;;2097672;28;20436;-88
2021/06/17 04:41:48;;;;;;;46.90;38.97;;;;;;;16.51;nan;99322.09;2099122;28;20559;-87
2021/06/17 04:42:51;;;;;;;57.37;40.27;;;;;;;16.54;nan;99321.44;2105847;28;20451;-88
2021/06/17 04:43:52;;;;;;;52.47;39.83;;;;;;;16.56;nan;99308.41;2106363;28;20456;-88
2021/06/17 04:44:54;;;;;;;53.97;40.93;;;;;;;16.61;nan;99305.53;2098090;28;20467;-87
2021/06/17 04:45:58;;;;;;;47.13;38.23;;;;;;;16.61;nan;99300.16;2105983;28;20447;-87
2021/06/17 04:47:01;;;;;;;58.27;39.63;;;;;;;16.64;nan;99300.28;2107540;28;20439;-87
2021/06/17 04:48:08;;;;;;;53.73;40.50;;;;;;;16.67;nan;99315.75;2105775;28;20451;-88
2021/06/17 04:49:13;;;;;;;50.93;39.87;;;;;;;16.63;nan;99254.81;2098125;28;20497;-87
2021/06/17 04:50:14;;;;;;;50.57;40.43;;;;;;;16.73;nan;99313.69;2106955;28;20454;-88
2021/06/17 04:51:18;;;;;;;53.83;40.10;;;;;;;16.76;nan;99312.25;2105647;28;20458;-89
2021/06/17 04:52:21;;;;;;;58.03;40.50;;;;;;;16.79;nan;99311.59;2099419;28;20290;-88
2021/06/17 04:53:22;;;;;;;55.03;39.83;;;;;;;;;;2097803;28;20566;-89
2021/06/17 04:54:23;;;;;;;48.47;40.17;;;;;;;;;;2098128;28;20459;-89
2021/06/17 04:55:25;;;;;;;53.80;39.77;;;;;;;16.86;nan;99306.47;2107280;28;20462;-88
2021/06/17 04:56:26;;;;;;;42.50;37.50;;;;;;;16.91;nan;99298.16;2106916;28;20225;-88
2021/06/17 04:57:28;;;;;;;49.93;39.87;;;;;;;16.94;nan;99330.66;2106666;28;20458;-89
2021/06/17 04:58:28;;;;;;;46.73;39.37;;;;;;;16.93;nan;99356.00;2106877;28;20221;-89
2021/06/17 04:59:30;;;;;;;48.07;39.20;;;;;;;17.01;nan;99319.31;2108175;28;20439;-89
2021/06/17 05:00:31;;;;;;;52.50;38.60;;;;;;;17.02;nan;99320.88;2107142;28;20222;-89
2021/06/17 05:01:33;;;;;;;52.13;38.03;;;;;;;16.98;nan;99319.19;2105769;28;20499;-89
2021/06/17 05:02:34;;;;;;;49.57;37.47;;;;;;;;;;2107300;28;20304;-89
2021/06/17 05:03:37;;;;;;;47.07;37.87;;;;;;;17.06;nan;99326.41;2107423;28;20443;-89